Latest Weather Observations for Mount Gellibrand

IDV60801

Issued at 3:02 pm EDT Monday 23 January 2017 (issued every 30 minutes, with the page automatically refreshed every 10 minutes)

About weather observations | Map of weather stations | Latest weather observations for VIC | Other Formats
Station Details ID: 090035 Name: MOUNT GELLIBRAND Lat: -38.23 Lon: 143.79 Height: 261.0 m
Data from the previous 72 hours. | See also: Recent months at Mount Gellibrand
Date/Time
EDT
Temp
°C
App
Temp
°C
Dew
Point
°C
Rel
Hum
%
Delta-T
°C
Wind Press
QNH
hPa
Press
MSL
hPa
Rain since
9am
mm
Dir  Spd
km/h
Gust
km/h
Spd
kts
Gust
kts
23/02:30pm 34.0 26.7 4.6 16 15.8 WNW 32 44 17 24 1003.3 1002.5 0.0
23/02:00pm 34.0 25.8 4.6 16 15.8 WNW 37 50 20 27 1003.7 1002.9 0.0
23/01:57pm 34.3 26.1 4.9 16 15.8 WNW 37 50 20 27 1003.7 1002.9 0.0
23/01:30pm 35.0 26.9 3.5 14 16.6 NW 35 56 19 30 1003.7 1002.9 0.0
23/01:25pm 35.0 26.6 3.5 14 16.6 NW 37 56 20 30 1003.7 1002.9 0.0
23/01:00pm 35.1 27.1 3.6 14 16.7 NW 35 46 19 25 1004.2 1003.3 0.0
23/12:36pm 34.6 27.4 5.1 16 16.0 WNW 32 54 17 29 1004.5 1003.6 0.0
23/12:30pm 34.2 27.1 5.7 17 15.5 NW 32 43 17 23 1004.6 1003.7 0.0
23/12:07pm 34.8 27.7 5.3 16 16.0 NW 32 50 17 27 1004.7 1003.8 0.0
23/12:00pm 33.9 26.8 5.4 17 15.5 NW 32 43 17 23 1004.9 1004.0 0.0
23/11:30am 34.2 26.9 7.3 19 15.0 NNW 35 43 19 23 1005.2 1004.3 0.0
23/11:00am 31.2 27.0 11.1 29 11.8 N 24 35 13 19 1005.8 1005.0 0.0
23/10:30am 28.0 24.8 12.0 37 9.4 N 20 26 11 14 1006.1 1005.3 0.0
23/10:00am 26.8 26.0 12.8 42 8.3 NNW 9 13 5 7 1006.6 1005.8 0.0
23/09:30am 24.1 24.8 13.3 51 6.3 NNE 2 6 1 3 1007.0 1006.2 0.0
23/09:00am 23.9 24.0 11.6 46 7.0 NNE 2 6 1 3 1007.1 1006.3 0.0
23/08:30am 22.3 22.8 12.8 55 5.5 NNE 2 4 1 2 1007.0 1006.2 0.0
23/08:00am 21.9 22.0 13.8 60 4.8 NNE 6 7 3 4 1006.8 1006.0 0.0
23/07:30am 19.4 20.1 14.4 73 2.9 NE 4 6 2 3 1006.6 1005.8 0.0
23/07:00am 18.5 18.7 14.8 79 2.2 NE 7 9 4 5 1006.7 1005.9 0.0
23/06:30am 18.4 18.6 14.7 79 2.2 NE 7 9 4 5 1006.8 1006.0 0.0
23/06:00am 18.1 17.9 14.6 80 2.1 ENE 9 11 5 6 1007.0 1006.2 0.0
23/05:30am 18.1 17.9 14.8 81 1.9 E 9 11 5 6 1007.3 1006.5 0.0
23/05:00am 18.0 18.3 15.1 83 1.7 ENE 7 9 4 5 1007.4 1006.6 0.0
23/04:30am 17.4 17.1 14.3 82 1.8 NE 9 13 5 7 1007.3 1006.5 0.0
23/04:00am 17.6 16.1 14.1 80 2.0 ENE 15 19 8 10 1007.3 1006.5 0.0
23/03:30am 18.0 16.1 14.3 79 2.2 ENE 17 20 9 11 1007.3 1006.5 0.0
23/03:00am 18.0 16.5 14.3 79 2.2 E 15 17 8 9 1007.9 1007.0 0.0
23/02:30am 17.8 15.9 14.3 80 2.0 E 17 19 9 10 1008.3 1007.4 0.0
23/02:00am 17.4 15.2 14.5 83 1.7 ESE 19 20 10 11 1008.6 1007.7 0.0
23/01:30am 17.1 14.8 14.6 85 1.5 E 20 22 11 12 1008.9 1008.1 0.0
23/01:00am 17.0 14.3 14.6 86 1.4 E 22 24 12 13 1009.2 1008.4 0.0
23/12:30am 16.3 13.5 14.3 88 1.2 ESE 22 28 12 15 1009.6 1008.8 0.0
23/12:00am 16.2 13.0 14.2 88 1.2 ESE 24 28 13 15 1009.9 1009.1 0.0
 
Date/Time
EDT
Temp
°C
App
Temp
°C
Dew
Point
°C
Rel
Hum
%
Delta-T
°C
Wind Press
QNH
hPa
Press
MSL
hPa
Rain since
9am
mm
Dir  Spd
km/h
Gust
km/h
Spd
kts
Gust
kts
22/11:30pm 16.1 12.5 14.3 89 1.0 ESE 26 30 14 16 1010.5 1009.7 0.0
22/11:00pm 16.0 12.4 14.2 89 1.0 ESE 26 30 14 16 1010.8 1010.0 0.0
22/10:30pm 16.1 12.0 13.9 87 1.3 E 28 32 15 17 1010.9 1010.1 0.0
22/10:00pm 16.5 11.8 13.2 81 1.9 ESE 30 37 16 20 1011.0 1010.2 0.0
22/09:30pm 16.9 12.1 11.8 72 2.8 ESE 28 33 15 18 1011.3 1010.5 0.0
22/09:00pm 17.4 12.4 12.3 72 2.9 ESE 30 33 16 18 1011.0 1010.2 0.0
22/08:30pm 18.6 13.5 11.9 65 3.7 ESE 30 35 16 19 1011.3 1010.5 0.0
22/08:00pm 19.3 14.1 11.6 61 4.3 ESE 30 35 16 19 1011.3 1010.5 0.0
22/07:30pm 21.0 16.5 12.7 59 4.8 ESE 28 33 15 18 1011.4 1010.6 0.0
22/07:00pm 22.4 18.1 12.1 52 5.9 ESE 26 32 14 17 1011.3 1010.5 0.0
22/06:30pm 23.5 18.5 10.9 45 7.1 ESE 28 35 15 19 1011.2 1010.4 0.0
22/06:00pm 24.7 19.4 11.3 43 7.6 E 30 37 16 20 1011.2 1010.4 0.0
22/05:30pm 24.7 19.8 12.6 47 7.0 ESE 30 35 16 19 1011.6 1010.8 0.0
22/05:00pm 26.0 21.1 12.5 43 7.9 ESE 30 37 16 20 1011.9 1011.0 0.0
22/04:30pm 26.9 22.4 12.5 40 8.5 ESE 28 33 15 18 1012.2 1011.4 0.0
22/04:00pm 27.8 24.1 12.6 39 9.0 E 24 32 13 17 1012.4 1011.6 0.0
22/03:30pm 27.6 23.9 11.6 37 9.3 E 22 30 12 16 1012.8 1012.0 0.0
22/03:00pm 28.7 25.1 10.4 32 10.5 E 20 32 11 17 1013.1 1012.3 0.0
22/02:30pm 28.1 24.8 9.4 31 10.5 ENE 17 26 9 14 1013.6 1012.8 0.0
22/02:00pm 27.1 24.0 10.3 35 9.5 E 17 28 9 15 1013.8 1013.0 0.0
22/01:30pm 26.6 23.4 9.9 35 9.4 ENE 17 26 9 14 1014.0 1013.2 0.0
22/01:00pm 25.8 22.1 10.0 37 8.8 E 20 28 11 15 1014.2 1013.4 0.0
22/12:30pm 24.6 21.1 10.1 40 8.1 ENE 19 24 10 13 1014.7 1013.9 0.0
22/12:00pm 23.7 20.0 9.3 40 7.9 ENE 19 28 10 15 1014.9 1014.1 0.0
22/11:30am 22.3 19.1 11.4 50 6.1 ENE 19 24 10 13 1015.1 1014.3 0.0
22/11:00am 21.3 17.4 10.8 51 5.8 ENE 22 33 12 18 1015.0 1014.2 0.0
22/10:30am 20.0 16.5 12.3 61 4.4 ENE 22 28 12 15 1015.2 1014.4 0.0
22/10:00am 18.3 15.6 13.4 73 2.8 ENE 20 26 11 14 1015.6 1014.9 0.0
22/09:30am 17.1 13.6 13.4 79 2.1 ENE 24 30 13 16 1015.9 1015.1 0.0
22/09:00am 15.6 13.2 14.5 93 0.6 E 20 26 11 14 1016.4 1015.6 0.0
22/08:30am 14.3 12.4 14.1 99 0.1 E 17 20 9 11 1016.3 1015.5 0.0
22/08:00am 13.4 12.4 13.4 100 0.0 E 11 13 6 7 1016.5 1015.7 0.0
22/07:30am 13.0 11.5 13.0 100 0.0 E 13 13 7 7 1016.5 1015.7 0.0
22/07:00am 12.3 10.9 12.3 100 0.0 E 11 13 6 7 1016.3 1015.5 0.0
22/06:30am 11.8 10.3 11.8 100 0.0 E 11 13 6 7 1016.2 1015.4 0.0
22/06:00am 12.0 10.5 11.8 99 0.1 E 11 11 6 6 1016.3 1015.5 0.0
22/05:30am 12.3 10.5 12.1 99 0.1 E 13 15 7 8 1016.0 1015.2 0.0
22/05:00am 12.4 10.2 12.2 99 0.1 E 15 17 8 9 1015.9 1015.1 0.0
22/04:30am 12.4 10.6 12.2 99 0.1 ESE 13 13 7 7 1015.9 1015.1 0.0
22/04:00am 12.3 10.5 12.1 99 0.1 ESE 13 13 7 7 1015.6 1014.9 0.0
22/03:30am 12.1 10.2 11.9 99 0.1 ESE 13 13 7 7 1015.6 1014.9 0.0
22/03:00am 12.0 10.1 11.7 98 0.2 E 13 13 7 7 1015.7 1015.0 0.0
22/02:30am 12.3 10.8 11.8 97 0.3 ESE 11 11 6 6 1016.0 1015.2 0.0
22/02:00am 12.5 11.4 12.0 97 0.3 ESE 9 11 5 6 1016.2 1015.4 0.0
22/01:30am 12.6 11.1 12.0 96 0.3 ESE 11 11 6 6 1016.6 1015.8 0.0
22/01:00am 12.7 11.3 12.1 96 0.3 E 11 13 6 7 1016.8 1016.0 0.0
22/12:30am 12.6 11.1 12.0 96 0.3 E 11 13 6 7 1017.0 1016.2 0.0
22/12:00am 12.6 10.8 12.0 96 0.3 E 13 15 7 8 1016.9 1016.1 0.0
 
Date/Time
EDT
Temp
°C
App
Temp
°C
Dew
Point
°C
Rel
Hum
%
Delta-T
°C
Wind Press
QNH
hPa
Press
MSL
hPa
Rain since
9am
mm
Dir  Spd
km/h
Gust
km/h
Spd
kts
Gust
kts
21/11:30pm 12.9 10.7 12.0 94 0.5 E 15 17 8 9 1016.9 1016.1 0.0
21/11:00pm 13.1 10.5 12.0 93 0.6 E 17 20 9 11 1017.0 1016.2 0.0
21/10:30pm 13.3 10.7 11.9 91 0.8 E 17 19 9 10 1017.1 1016.3 0.0
21/10:00pm 13.6 10.6 12.0 90 0.9 ESE 19 20 10 11 1016.9 1016.1 0.0
21/09:30pm 13.9 10.6 11.6 86 1.2 ESE 20 24 11 13 1016.8 1016.0 0.0
21/09:00pm 14.6 10.4 11.2 80 1.8 ESE 24 28 13 15 1016.6 1015.8 0.0
21/08:30pm 15.5 11.4 11.5 77 2.2 ESE 24 28 13 15 1016.3 1015.5 0.0
21/08:00pm 16.4 12.3 11.3 72 2.8 ESE 24 30 13 16 1016.0 1015.2 0.0
21/07:30pm 17.5 13.8 11.5 68 3.3 ESE 22 26 12 14 1015.6 1014.9 0.0
21/07:00pm 18.5 14.8 11.6 64 3.8 E 22 28 12 15 1015.4 1014.7 0.0
21/06:30pm 19.6 16.4 11.9 61 4.3 E 20 24 11 13 1015.1 1014.3 0.0
21/06:00pm 19.8 16.2 11.8 60 4.5 E 22 30 12 16 1015.1 1014.3 0.0
21/05:30pm 21.3 18.4 12.2 56 5.2 ESE 19 26 10 14 1015.2 1014.4 0.0
21/05:00pm 21.9 20.0 10.4 48 6.4 WSW 11 20 6 11 1015.2 1014.4 0.0
21/04:30pm 21.9 19.8 9.8 46 6.6 WSW 11 26 6 14 1015.3 1014.6 0.0
21/04:00pm 21.4 19.2 9.3 46 6.5 SSW 11 20 6 11 1015.3 1014.6 0.0
21/03:30pm 21.2 18.6 9.4 47 6.4 WSW 13 24 7 13 1015.4 1014.7 0.0
21/03:00pm 21.3 19.6 9.9 48 6.2 SW 9 20 5 11 1015.5 1014.8 0.0
21/02:30pm 21.7 19.2 9.6 46 6.6 SW 13 24 7 13 1015.6 1014.9 0.0
21/02:00pm 20.4 18.4 10.2 52 5.6 WSW 11 17 6 9 1015.6 1014.9 0.0
21/01:30pm 20.2 18.0 9.2 49 5.9 SSW 11 20 6 11 1015.9 1015.1 0.0
21/01:00pm 20.1 17.1 9.4 50 5.7 SW 15 24 8 13 1016.1 1015.3 0.0
21/12:30pm 18.1 15.8 8.9 55 4.8 WSW 11 20 6 11 1016.3 1015.5 0.0
21/12:00pm 18.2 15.3 9.8 58 4.5 WSW 15 24 8 13 1016.3 1015.5 0.0
21/11:30am 16.7 13.8 9.6 63 3.8 WSW 15 24 8 13 1016.4 1015.6 0.0
21/11:00am 15.8 12.6 9.9 68 3.1 WSW 17 24 9 13 1016.3 1015.5 0.0
21/10:30am 15.7 13.6 9.8 68 3.1 SW 11 19 6 10 1015.9 1015.1 0.0
21/10:00am 14.9 12.5 9.9 72 2.6 W 13 19 7 10 1015.7 1015.0 0.0
21/09:30am 14.4 12.4 10.0 75 2.3 SW 11 19 6 10 1015.6 1014.9 0.0
21/09:00am 13.4 11.4 10.0 80 1.8 WSW 11 15 6 8 1015.4 1014.7 0.0
21/08:30am 12.4 10.9 10.5 88 1.0 WSW 9 11 5 6 1015.0 1014.2 0.0
21/08:00am 11.4 9.1 10.3 93 0.6 SW 13 15 7 8 1014.4 1013.6 0.0
21/07:30am 10.7 7.9 10.1 96 0.3 WSW 15 17 8 9 1013.8 1013.0 0.0
21/07:00am 10.4 7.5 9.6 95 0.4 WSW 15 15 8 8 1013.4 1012.6 0.0
21/06:30am 10.0 7.0 9.1 94 0.5 WSW 15 17 8 9 1013.0 1012.2 0.0
21/06:00am 10.0 7.3 9.1 94 0.5 W 13 15 7 8 1012.8 1012.0 0.0
21/05:30am 10.0 6.9 8.9 93 0.5 W 15 17 8 9 1012.5 1011.7 0.0
21/05:00am 9.9 7.1 8.5 91 0.7 W 13 15 7 8 1012.1 1011.3 0.0
21/04:30am 10.6 7.8 8.5 87 1.0 W 13 17 7 9 1011.7 1010.9 0.0
21/04:00am 11.1 8.3 8.7 85 1.2 W 13 17 7 9 1011.6 1010.8 0.0
21/03:30am 10.8 8.4 8.6 86 1.1 W 11 13 6 7 1011.7 1010.9 0.0
21/03:00am 10.7 8.2 8.3 85 1.2 W 11 13 6 7 1011.6 1010.8 0.0
21/02:30am 10.7 8.3 8.5 86 1.1 WSW 11 15 6 8 1011.4 1010.6 0.0
21/02:00am 10.2 7.5 7.3 82 1.4 SW 11 15 6 8 1011.3 1010.5 0.0
21/01:30am 11.3 8.0 8.0 80 1.6 SW 15 17 8 9 1011.2 1010.4 0.0
21/01:00am 10.7 7.3 7.6 81 1.5 SW 15 17 8 9 1011.0 1010.2 0.0
21/12:30am 10.6 6.8 7.7 82 1.4 SW 17 19 9 10 1010.8 1010.0 0.0
21/12:00am 10.7 6.4 7.8 82 1.4 SSW 20 22 11 12 1010.7 1009.9 0.0
 
Date/Time
EDT
Temp
°C
App
Temp
°C
Dew
Point
°C
Rel
Hum
%
Delta-T
°C
Wind Press
QNH
hPa
Press
MSL
hPa
Rain since
9am
mm
Dir  Spd
km/h
Gust
km/h
Spd
kts
Gust
kts
20/11:30pm 10.8 6.7 7.9 82 1.4 SW 19 22 10 12 1010.5 1009.7 0.0
20/11:00pm 11.1 6.8 8.0 81 1.5 SW 20 24 11 13 1010.4 1009.6 0.0
20/10:30pm 11.5 7.2 8.0 79 1.7 SW 20 24 11 13 1010.1 1009.3 0.0
20/10:00pm 11.2 6.9 7.7 79 1.7 SW 20 24 11 13 1009.7 1008.9 0.0
20/09:30pm 11.5 6.4 7.6 77 1.9 SW 24 28 13 15 1009.4 1008.6 0.0
20/09:00pm 12.1 6.6 7.6 74 2.2 SSW 26 32 14 17 1009.0 1008.2 0.0
20/08:30pm 12.8 6.0 7.5 70 2.6 SSW 33 43 18 23 1008.7 1007.8 0.0
20/08:00pm 13.1 6.0 8.0 71 2.6 SSW 35 46 19 25 1008.3 1007.4 0.0
20/07:30pm 14.4 7.2 9.2 71 2.7 SW 37 44 20 24 1007.9 1007.0 0.0
20/07:00pm 14.4 6.8 9.0 70 2.8 SSW 39 52 21 28 1007.1 1006.3 0.0
20/06:30pm 14.5 6.5 8.9 69 2.9 SW 41 56 22 30 1006.4 1005.6 0.0
20/06:00pm 15.4 7.8 9.1 66 3.3 SW 39 46 21 25 1005.9 1005.1 0.0
20/05:30pm 15.1 7.8 8.8 66 3.2 SW 37 46 20 25 1005.5 1004.7 0.0
20/05:00pm 15.4 6.3 8.6 64 3.5 SW 46 59 25 32 1005.3 1004.4 0.0
20/04:30pm 16.8 8.5 10.2 65 3.5 SW 44 59 24 32 1004.6 1003.7 0.0
20/04:00pm 16.3 8.2 10.2 67 3.3 SW 43 59 23 32 1004.1 1003.2 0.0
20/03:30pm 15.9 7.6 10.0 68 3.1 SW 44 56 24 30 1003.5 1002.7 0.0

Other Formats:

Comma delimited format used in spreadsheet applications
http://www.bom.gov.au/fwo/IDV60801/IDV60801.95845.axf

JavaScript Object Notation format (JSON) in row-major order
http://www.bom.gov.au/fwo/IDV60801/IDV60801.95845.json